sensor_id;sensor_type;location;lat;lon;timestamp;pressure;altitude;pressure_sealevel;temperature;humidity
21547;BME280;41275;51.912;4.388;2024-02-15T00:01:26;101599.19;;;18.95;56.36
21547;BME280;41275;51.912;4.388;2024-02-15T00:06:47;101601.31;;;18.93;56.21
21547;BME280;41275;51.912;4.388;2024-02-15T00:12:08;101615.78;;;18.86;56.02
21547;BME280;41275;51.912;4.388;2024-02-15T00:17:29;101610.16;;;18.88;56.19
21547;BME280;41275;51.912;4.388;2024-02-15T00:22:51;101606.38;;;18.89;56.02
21547;BME280;41275;51.912;4.388;2024-02-15T00:28:13;101605.88;;;18.92;55.93
21547;BME280;41275;51.912;4.388;2024-02-15T00:33:34;101600.50;;;18.87;55.89
21547;BME280;41275;51.912;4.388;2024-02-15T00:38:58;101587.31;;;18.80;55.94
21547;BME280;41275;51.912;4.388;2024-02-15T00:44:20;101594.00;;;18.78;56.09
21547;BME280;41275;51.912;4.388;2024-02-15T00:49:41;101587.28;;;18.70;56.14
21547;BME280;41275;51.912;4.388;2024-02-15T00:55:03;101596.88;;;18.66;55.91
21547;BME280;41275;51.912;4.388;2024-02-15T01:00:24;101590.13;;;18.58;56.23
21547;BME280;41275;51.912;4.388;2024-02-15T01:05:47;101575.13;;;18.52;56.26
21547;BME280;41275;51.912;4.388;2024-02-15T01:11:08;101578.81;;;18.41;56.30
21547;BME280;41275;51.912;4.388;2024-02-15T01:16:30;101575.56;;;18.39;56.58
21547;BME280;41275;51.912;4.388;2024-02-15T01:21:51;101564.38;;;18.47;56.54
21547;BME280;41275;51.912;4.388;2024-02-15T01:27:14;101560.88;;;18.47;56.83
21547;BME280;41275;51.912;4.388;2024-02-15T01:32:35;101567.00;;;18.37;56.63
21547;BME280;41275;51.912;4.388;2024-02-15T01:37:57;101558.13;;;18.31;56.90
21547;BME280;41275;51.912;4.388;2024-02-15T01:43:19;101553.88;;;18.40;56.94
21547;BME280;41275;51.912;4.388;2024-02-15T01:48:40;101555.53;;;18.52;56.88
21547;BME280;41275;51.912;4.388;2024-02-15T01:54:03;101545.66;;;18.62;56.89
21547;BME280;41275;51.912;4.388;2024-02-15T01:59:25;101537.66;;;18.68;56.86
21547;BME280;41275;51.912;4.388;2024-02-15T02:04:46;101538.69;;;18.67;56.54
21547;BME280;41275;51.912;4.388;2024-02-15T02:10:08;101543.00;;;18.68;56.51
21547;BME280;41275;51.912;4.388;2024-02-15T02:15:33;101536.34;;;18.70;56.32
21547;BME280;41275;51.912;4.388;2024-02-15T02:20:54;101536.88;;;18.72;56.52
21547;BME280;41275;51.912;4.388;2024-02-15T02:26:16;101520.50;;;18.69;56.21
21547;BME280;41275;51.912;4.388;2024-02-15T02:31:37;101521.56;;;18.68;56.14
21547;BME280;41275;51.912;4.388;2024-02-15T02:36:58;101524.25;;;18.68;56.11
21547;BME280;41275;51.912;4.388;2024-02-15T02:42:20;101531.22;;;18.69;56.26
21547;BME280;41275;51.912;4.388;2024-02-15T02:47:42;101529.34;;;18.69;56.15
21547;BME280;41275;51.912;4.388;2024-02-15T02:53:03;101522.91;;;18.70;56.32
21547;BME280;41275;51.912;4.388;2024-02-15T02:58:24;101528.03;;;18.72;56.31
21547;BME280;41275;51.912;4.388;2024-02-15T03:03:45;101523.47;;;18.72;56.26
21547;BME280;41275;51.912;4.388;2024-02-15T03:09:08;101522.38;;;18.68;56.43
21547;BME280;41275;51.912;4.388;2024-02-15T03:14:30;101513.25;;;18.69;56.56
21547;BME280;41275;51.912;4.388;2024-02-15T03:19:52;101502.78;;;18.68;56.38
21547;BME280;41275;51.912;4.388;2024-02-15T03:25:13;101510.81;;;18.62;56.48
21547;BME280;41275;51.912;4.388;2024-02-15T03:30:34;101498.47;;;18.56;56.75
21547;BME280;41275;51.912;4.388;2024-02-15T03:35:55;101512.09;;;18.50;56.81
21547;BME280;41275;51.912;4.388;2024-02-15T03:41:20;101503.53;;;18.48;56.96
21547;BME280;41275;51.912;4.388;2024-02-15T03:46:41;101504.34;;;18.48;57.27
21547;BME280;41275;51.912;4.388;2024-02-15T03:52:04;101504.88;;;18.50;57.17
21547;BME280;41275;51.912;4.388;2024-02-15T03:57:26;101496.53;;;18.47;57.33
21547;BME280;41275;51.912;4.388;2024-02-15T04:02:47;101491.72;;;18.44;57.27
21547;BME280;41275;51.912;4.388;2024-02-15T04:08:09;101489.34;;;18.47;57.48
21547;BME280;41275;51.912;4.388;2024-02-15T04:13:31;101498.69;;;18.39;57.60
21547;BME280;41275;51.912;4.388;2024-02-15T04:18:53;101484.44;;;18.39;57.85
21547;BME280;41275;51.912;4.388;2024-02-15T04:24:14;101480.16;;;18.38;57.78
21547;BME280;41275;51.912;4.388;2024-02-15T04:29:35;101482.06;;;18.37;58.04
21547;BME280;41275;51.912;4.388;2024-02-15T04:34:57;101490.88;;;18.38;57.96
21547;BME280;41275;51.912;4.388;2024-02-15T04:40:19;101503.47;;;18.37;58.11
21547;BME280;41275;51.912;4.388;2024-02-15T04:45:40;101506.44;;;18.41;58.12
21547;BME280;41275;51.912;4.388;2024-02-15T04:51:02;101490.88;;;18.38;58.26
21547;BME280;41275;51.912;4.388;2024-02-15T04:56:23;101426.06;;;18.46;58.23
21547;BME280;41275;51.912;4.388;2024-02-15T05:01:45;101465.97;;;18.43;58.29
21547;BME280;41275;51.912;4.388;2024-02-15T05:07:06;101456.31;;;18.36;58.31
21547;BME280;41275;51.912;4.388;2024-02-15T05:12:27;101455.25;;;18.37;58.38
21547;BME280;41275;51.912;4.388;2024-02-15T05:17:48;101448.53;;;18.35;58.32
21547;BME280;41275;51.912;4.388;2024-02-15T05:23:09;101428.97;;;18.34;58.29
21547;BME280;41275;51.912;4.388;2024-02-15T05:28:31;101433.28;;;18.35;58.67
21547;BME280;41275;51.912;4.388;2024-02-15T05:33:53;101444.00;;;18.35;58.47
21547;BME280;41275;51.912;4.388;2024-02-15T05:39:14;101437.00;;;18.34;58.30
21547;BME280;41275;51.912;4.388;2024-02-15T05:44:36;101422.00;;;18.33;58.58
21547;BME280;41275;51.912;4.388;2024-02-15T05:49:57;101429.53;;;18.36;58.51
21547;BME280;41275;51.912;4.388;2024-02-15T05:55:18;101408.63;;;18.33;58.40
21547;BME280;41275;51.912;4.388;2024-02-15T06:00:40;101420.13;;;18.29;58.55
21547;BME280;41275;51.912;4.388;2024-02-15T06:06:02;101414.78;;;18.29;58.74
21547;BME280;41275;51.912;4.388;2024-02-15T06:11:27;101408.84;;;18.27;58.49
21547;BME280;41275;51.912;4.388;2024-02-15T06:16:48;101406.72;;;18.24;58.69
21547;BME280;41275;51.912;4.388;2024-02-15T06:22:10;101398.41;;;18.25;58.67
21547;BME280;41275;51.912;4.388;2024-02-15T06:27:33;101400.00;;;18.26;58.82
21547;BME280;41275;51.912;4.388;2024-02-15T06:32:55;101395.19;;;18.23;58.87
21547;BME280;41275;51.912;4.388;2024-02-15T06:38:34;101403.50;;;18.22;58.83
21547;BME280;41275;51.912;4.388;2024-02-15T06:44:14;101402.97;;;18.30;59.05
21547;BME280;41275;51.912;4.388;2024-02-15T06:49:36;101412.09;;;18.34;58.95
21547;BME280;41275;51.912;4.388;2024-02-15T06:55:00;101423.91;;;18.38;59.03
21547;BME280;41275;51.912;4.388;2024-02-15T07:00:22;101419.38;;;18.49;59.08
21547;BME280;41275;51.912;4.388;2024-02-15T07:05:43;101421.25;;;18.48;59.02
21547;BME280;41275;51.912;4.388;2024-02-15T07:11:06;101429.03;;;18.50;59.05
21547;BME280;41275;51.912;4.388;2024-02-15T07:16:30;101423.66;;;18.45;59.08
21547;BME280;41275;51.912;4.388;2024-02-15T07:21:51;101435.47;;;18.49;58.92
21547;BME280;41275;51.912;4.388;2024-02-15T07:27:12;101417.78;;;18.48;58.80
21547;BME280;41275;51.912;4.388;2024-02-15T07:32:34;101429.03;;;18.50;59.19
21547;BME280;41275;51.912;4.388;2024-02-15T07:37:56;101422.34;;;18.52;58.97
21547;BME280;41275;51.912;4.388;2024-02-15T07:43:19;101414.81;;;18.49;58.80
21547;BME280;41275;51.912;4.388;2024-02-15T07:48:40;101413.50;;;18.52;58.65
21547;BME280;41275;51.912;4.388;2024-02-15T07:54:06;101398.50;;;18.56;58.55
21547;BME280;41275;51.912;4.388;2024-02-15T07:59:27;101409.22;;;18.56;58.73
21547;BME280;41275;51.912;4.388;2024-02-15T08:04:49;101405.19;;;18.53;58.69
21547;BME280;41275;51.912;4.388;2024-02-15T08:10:11;101418.06;;;18.51;58.58
21547;BME280;41275;51.912;4.388;2024-02-15T08:15:35;101411.09;;;18.55;58.69
21547;BME280;41275;51.912;4.388;2024-02-15T08:20:57;101425.84;;;18.63;58.58
21547;BME280;41275;51.912;4.388;2024-02-15T08:26:18;101417.53;;;18.59;58.40
21547;BME280;41275;51.912;4.388;2024-02-15T08:31:39;101413.78;;;18.60;58.80
21547;BME280;41275;51.912;4.388;2024-02-15T08:37:02;101413.78;;;18.65;58.63
21547;BME280;41275;51.912;4.388;2024-02-15T08:42:24;101397.16;;;18.69;58.60
21547;BME280;41275;51.912;4.388;2024-02-15T08:47:45;101403.91;;;18.76;58.64
21547;BME280;41275;51.912;4.388;2024-02-15T08:53:07;101395.84;;;18.81;58.48
21547;BME280;41275;51.912;4.388;2024-02-15T08:58:28;101394.53;;;18.84;58.46
21547;BME280;41275;51.912;4.388;2024-02-15T09:03:51;101400.97;;;18.88;58.42
21547;BME280;41275;51.912;4.388;2024-02-15T09:09:12;101392.09;;;18.98;58.43
21547;BME280;41275;51.912;4.388;2024-02-15T09:14:33;101382.47;;;19.07;58.24
21547;BME280;41275;51.912;4.388;2024-02-15T09:19:54;101381.38;;;19.18;58.13
21547;BME280;41275;51.912;4.388;2024-02-15T09:25:16;101386.16;;;19.36;57.66
21547;BME280;41275;51.912;4.388;2024-02-15T09:30:38;101385.38;;;19.31;57.67
21547;BME280;41275;51.912;4.388;2024-02-15T09:35:59;101388.31;;;19.50;57.65
21547;BME280;41275;51.912;4.388;2024-02-15T09:41:20;101379.69;;;19.73;57.17
21547;BME280;41275;51.912;4.388;2024-02-15T09:46:43;101367.47;;;19.96;56.62
21547;BME280;41275;51.912;4.388;2024-02-15T09:52:08;101384.09;;;20.03;56.23
21547;BME280;41275;51.912;4.388;2024-02-15T09:57:42;101389.75;;;20.02;56.08
21547;BME280;41275;51.912;4.388;2024-02-15T10:03:06;101387.91;;;19.92;55.90
21547;BME280;41275;51.912;4.388;2024-02-15T10:08:29;101394.91;;;19.93;55.83
21547;BME280;41275;51.912;4.388;2024-02-15T10:13:50;101396.22;;;20.01;55.91
21547;BME280;41275;51.912;4.388;2024-02-15T10:19:12;101395.03;;;20.22;55.45
21547;BME280;41275;51.912;4.388;2024-02-15T10:24:33;101395.97;;;20.52;55.03
21547;BME280;41275;51.912;4.388;2024-02-15T10:30:14;101394.38;;;20.85;54.83
21547;BME280;41275;51.912;4.388;2024-02-15T10:35:36;101396.53;;;21.17;54.41
21547;BME280;41275;51.912;4.388;2024-02-15T10:41:03;101394.00;;;21.26;54.11
21547;BME280;41275;51.912;4.388;2024-02-15T10:46:28;101392.59;;;21.39;53.86
21547;BME280;41275;51.912;4.388;2024-02-15T10:52:00;101385.00;;;21.41;53.32
21547;BME280;41275;51.912;4.388;2024-02-15T10:57:26;101387.69;;;21.46;53.72
21547;BME280;41275;51.912;4.388;2024-02-15T11:02:57;101377.56;;;21.56;53.42
21547;BME280;41275;51.912;4.388;2024-02-15T11:08:22;101361.47;;;21.51;53.33
21547;BME280;41275;51.912;4.388;2024-02-15T11:13:44;101368.13;;;21.59;53.11
21547;BME280;41275;51.912;4.388;2024-02-15T11:19:05;101366.34;;;21.49;53.41
21547;BME280;41275;51.912;4.388;2024-02-15T11:24:31;101356.66;;;21.48;53.44
21547;BME280;41275;51.912;4.388;2024-02-15T11:29:59;101344.38;;;21.61;53.11
21547;BME280;41275;51.912;4.388;2024-02-15T11:35:26;101337.56;;;21.69;53.10
21547;BME280;41275;51.912;4.388;2024-02-15T11:46:17;101324.50;;;22.00;52.31
21547;BME280;41275;51.912;4.388;2024-02-15T11:51:39;101312.78;;;22.10;51.85
21547;BME280;41275;51.912;4.388;2024-02-15T11:57:06;101318.66;;;22.17;51.54
21547;BME280;41275;51.912;4.388;2024-02-15T12:02:34;101319.44;;;22.36;51.60
21547;BME280;41275;51.912;4.388;2024-02-15T12:08:14;101315.28;;;22.76;50.82
21547;BME280;41275;51.912;4.388;2024-02-15T12:13:58;101294.66;;;22.67;50.47
21547;BME280;41275;51.912;4.388;2024-02-15T12:19:38;101294.28;;;22.73;50.06
21547;BME280;41275;51.912;4.388;2024-02-15T12:25:02;101276.38;;;22.77;49.78
21547;BME280;41275;51.912;4.388;2024-02-15T12:30:33;101260.31;;;22.86;49.67
21547;BME280;41275;51.912;4.388;2024-02-15T12:36:17;101256.25;;;23.02;49.89
21547;BME280;41275;51.912;4.388;2024-02-15T12:41:41;101255.16;;;23.95;48.90
21547;BME280;41275;51.912;4.388;2024-02-15T12:47:08;101238.81;;;24.45;47.33
21547;BME280;41275;51.912;4.388;2024-02-15T12:52:36;101248.72;;;24.81;45.99
21547;BME280;41275;51.912;4.388;2024-02-15T12:57:58;101242.59;;;25.06;45.13
21547;BME280;41275;51.912;4.388;2024-02-15T13:03:19;101233.28;;;25.38;44.16
21547;BME280;41275;51.912;4.388;2024-02-15T13:08:40;101211.97;;;25.63;43.33
21547;BME280;41275;51.912;4.388;2024-02-15T13:14:01;101212.44;;;25.56;42.96
21547;BME280;41275;51.912;4.388;2024-02-15T13:19:23;101193.63;;;25.51;43.25
21547;BME280;41275;51.912;4.388;2024-02-15T13:24:44;101194.13;;;25.70;43.14
21547;BME280;41275;51.912;4.388;2024-02-15T13:30:06;101194.63;;;25.90;42.26
21547;BME280;41275;51.912;4.388;2024-02-15T13:35:30;101187.72;;;25.58;42.20
21547;BME280;41275;51.912;4.388;2024-02-15T13:40:51;101188.06;;;25.56;42.15
21547;BME280;41275;51.912;4.388;2024-02-15T13:46:16;101176.06;;;25.66;42.49
21547;BME280;41275;51.912;4.388;2024-02-15T13:51:41;101170.63;;;26.09;41.42
21547;BME280;41275;51.912;4.388;2024-02-15T13:57:02;101165.22;;;26.01;41.71
21547;BME280;41275;51.912;4.388;2024-02-15T14:02:23;101162.84;;;25.38;41.51
21547;BME280;41275;51.912;4.388;2024-02-15T14:07:48;101147.78;;;24.80;42.14
21547;BME280;41275;51.912;4.388;2024-02-15T14:13:10;101141.72;;;24.43;42.56
21547;BME280;41275;51.912;4.388;2024-02-15T14:18:33;101136.00;;;24.14;43.01
21547;BME280;41275;51.912;4.388;2024-02-15T14:23:55;101131.97;;;24.03;43.41
21547;BME280;41275;51.912;4.388;2024-02-15T14:29:17;101125.22;;;23.91;43.59
21547;BME280;41275;51.912;4.388;2024-02-15T14:34:41;101119.63;;;23.88;43.99
21547;BME280;41275;51.912;4.388;2024-02-15T14:40:02;101112.22;;;23.71;43.94
21547;BME280;41275;51.912;4.388;2024-02-15T14:45:24;101109.81;;;23.69;44.29
21547;BME280;41275;51.912;4.388;2024-02-15T14:50:46;101101.03;;;23.86;44.28
21547;BME280;41275;51.912;4.388;2024-02-15T14:56:07;101088.97;;;23.92;44.12
21547;BME280;41275;51.912;4.388;2024-02-15T15:01:28;101085.53;;;23.56;44.37
21547;BME280;41275;51.912;4.388;2024-02-15T15:06:50;101088.00;;;23.43;44.66
21547;BME280;41275;51.912;4.388;2024-02-15T15:12:29;101080.91;;;23.34;44.84
21547;BME280;41275;51.912;4.388;2024-02-15T15:18:03;101077.16;;;23.21;44.82
21547;BME280;41275;51.912;4.388;2024-02-15T15:23:26;101075.38;;;23.16;45.03
21547;BME280;41275;51.912;4.388;2024-02-15T15:28:48;101075.78;;;23.10;45.33
21547;BME280;41275;51.912;4.388;2024-02-15T15:34:10;101074.41;;;22.98;45.21
21547;BME280;41275;51.912;4.388;2024-02-15T15:39:32;101066.13;;;22.95;45.46
21547;BME280;41275;51.912;4.388;2024-02-15T15:44:55;101063.81;;;22.88;45.52
21547;BME280;41275;51.912;4.388;2024-02-15T15:50:16;101062.94;;;22.79;45.91
21547;BME280;41275;51.912;4.388;2024-02-15T15:55:38;101063.75;;;22.79;45.82
21547;BME280;41275;51.912;4.388;2024-02-15T16:00:59;101068.25;;;22.70;45.67
21547;BME280;41275;51.912;4.388;2024-02-15T16:06:21;101069.53;;;22.59;45.75
21547;BME280;41275;51.912;4.388;2024-02-15T16:11:42;101057.47;;;22.43;46.10
21547;BME280;41275;51.912;4.388;2024-02-15T16:17:03;101050.09;;;22.35;46.11
21547;BME280;41275;51.912;4.388;2024-02-15T16:22:25;101054.19;;;22.18;46.13
21547;BME280;41275;51.912;4.388;2024-02-15T16:27:46;101038.47;;;22.06;45.81
21547;BME280;41275;51.912;4.388;2024-02-15T16:33:08;101039.94;;;21.99;45.47
21547;BME280;41275;51.912;4.388;2024-02-15T16:38:29;101033.94;;;21.88;45.19
21547;BME280;41275;51.912;4.388;2024-02-15T16:43:51;101027.53;;;21.70;45.05
21547;BME280;41275;51.912;4.388;2024-02-15T16:49:17;101027.59;;;21.51;45.30
21547;BME280;41275;51.912;4.388;2024-02-15T16:54:40;101027.25;;;21.39;45.51
21547;BME280;41275;51.912;4.388;2024-02-15T17:00:01;101026.22;;;21.35;45.74
21547;BME280;41275;51.912;4.388;2024-02-15T17:05:27;101033.53;;;21.29;45.50
21547;BME280;41275;51.912;4.388;2024-02-15T17:10:48;101018.66;;;21.18;45.67
21547;BME280;41275;51.912;4.388;2024-02-15T17:16:10;101023.31;;;21.13;45.71
21547;BME280;41275;51.912;4.388;2024-02-15T17:21:32;101026.66;;;21.04;45.90
21547;BME280;41275;51.912;4.388;2024-02-15T17:26:55;101029.94;;;21.01;45.82
21547;BME280;41275;51.912;4.388;2024-02-15T17:32:16;101023.53;;;20.97;45.85
21547;BME280;41275;51.912;4.388;2024-02-15T17:37:39;101019.31;;;20.91;45.66
21547;BME280;41275;51.912;4.388;2024-02-15T17:43:00;101014.78;;;20.87;45.94
21547;BME280;41275;51.912;4.388;2024-02-15T17:48:21;101005.44;;;20.84;45.70
21547;BME280;41275;51.912;4.388;2024-02-15T17:53:44;101020.34;;;20.76;45.89
21547;BME280;41275;51.912;4.388;2024-02-15T17:59:05;101012.84;;;20.73;45.82
21547;BME280;41275;51.912;4.388;2024-02-15T18:04:30;101002.94;;;20.69;46.12
21547;BME280;41275;51.912;4.388;2024-02-15T18:09:52;101003.31;;;20.62;46.05
21547;BME280;41275;51.912;4.388;2024-02-15T18:15:13;101002.50;;;20.62;46.18
21547;BME280;41275;51.912;4.388;2024-02-15T18:20:43;101002.00;;;20.59;46.45
21547;BME280;41275;51.912;4.388;2024-02-15T18:26:05;101004.47;;;20.56;46.35
21547;BME280;41275;51.912;4.388;2024-02-15T18:31:26;100998.06;;;20.52;46.60
21547;BME280;41275;51.912;4.388;2024-02-15T18:36:48;100993.00;;;20.45;46.42
21547;BME280;41275;51.912;4.388;2024-02-15T18:42:10;100997.06;;;20.43;46.71
21547;BME280;41275;51.912;4.388;2024-02-15T18:47:31;100982.59;;;20.39;46.53
21547;BME280;41275;51.912;4.388;2024-02-15T18:52:53;100978.16;;;20.29;46.68
21547;BME280;41275;51.912;4.388;2024-02-15T18:58:16;100977.19;;;20.20;46.77
21547;BME280;41275;51.912;4.388;2024-02-15T19:03:39;100970.28;;;20.14;46.85
21547;BME280;41275;51.912;4.388;2024-02-15T19:09:01;100953.41;;;20.08;46.94
21547;BME280;41275;51.912;4.388;2024-02-15T19:14:22;100952.97;;;20.01;47.20
21547;BME280;41275;51.912;4.388;2024-02-15T19:19:44;100951.94;;;19.97;47.27
21547;BME280;41275;51.912;4.388;2024-02-15T19:25:09;100954.09;;;19.95;47.35
21547;BME280;41275;51.912;4.388;2024-02-15T19:30:38;100946.84;;;19.95;47.36
21547;BME280;41275;51.912;4.388;2024-02-15T19:36:01;100946.84;;;19.95;47.57
21547;BME280;41275;51.912;4.388;2024-02-15T19:41:23;100953.78;;;20.01;47.18
21547;BME280;41275;51.912;4.388;2024-02-15T19:46:44;100954.50;;;20.07;47.04
21547;BME280;41275;51.912;4.388;2024-02-15T19:52:07;100942.88;;;20.11;46.86
21547;BME280;41275;51.912;4.388;2024-02-15T19:57:30;100926.72;;;20.17;46.65
21547;BME280;41275;51.912;4.388;2024-02-15T20:02:51;100919.97;;;20.19;46.35
21547;BME280;41275;51.912;4.388;2024-02-15T20:08:13;100903.59;;;20.16;46.19
21547;BME280;41275;51.912;4.388;2024-02-15T20:13:38;100905.56;;;20.10;46.24
21547;BME280;41275;51.912;4.388;2024-02-15T20:18:59;100911.34;;;19.98;46.49
21547;BME280;41275;51.912;4.388;2024-02-15T20:24:23;100907.13;;;19.92;46.56
21547;BME280;41275;51.912;4.388;2024-02-15T20:29:44;100909.75;;;19.97;46.33
21547;BME280;41275;51.912;4.388;2024-02-15T20:35:08;100897.63;;;20.00;46.45
21547;BME280;41275;51.912;4.388;2024-02-15T20:40:29;100892.78;;;20.02;46.42
21547;BME280;41275;51.912;4.388;2024-02-15T20:45:51;100904.09;;;19.99;46.56
21547;BME280;41275;51.912;4.388;2024-02-15T20:51:13;100900.44;;;19.90;46.58
21547;BME280;41275;51.912;4.388;2024-02-15T20:56:38;100897.53;;;19.86;46.67
21547;BME280;41275;51.912;4.388;2024-02-15T21:02:01;100891.88;;;19.88;46.57
21547;BME280;41275;51.912;4.388;2024-02-15T21:07:22;100890.81;;;19.89;46.48
21547;BME280;41275;51.912;4.388;2024-02-15T21:12:44;100884.44;;;19.79;46.74
21547;BME280;41275;51.912;4.388;2024-02-15T21:18:05;100886.50;;;19.64;46.80
21547;BME280;41275;51.912;4.388;2024-02-15T21:23:26;100891.38;;;19.56;47.06
21547;BME280;41275;51.912;4.388;2024-02-15T21:28:48;100895.47;;;19.49;47.02
21547;BME280;41275;51.912;4.388;2024-02-15T21:34:10;100891.03;;;19.39;47.14
21547;BME280;41275;51.912;4.388;2024-02-15T21:39:31;100893.94;;;19.43;47.44
21547;BME280;41275;51.912;4.388;2024-02-15T21:44:55;100903.59;;;19.44;47.23
21547;BME280;41275;51.912;4.388;2024-02-15T21:50:16;100906.88;;;19.35;47.50
21547;BME280;41275;51.912;4.388;2024-02-15T21:55:38;100913.09;;;19.31;47.51
21547;BME280;41275;51.912;4.388;2024-02-15T22:00:59;100903.50;;;19.25;47.62
21547;BME280;41275;51.912;4.388;2024-02-15T22:06:21;100909.44;;;19.22;47.62
21547;BME280;41275;51.912;4.388;2024-02-15T22:11:42;100896.06;;;19.17;47.89
21547;BME280;41275;51.912;4.388;2024-02-15T22:17:03;100900.13;;;19.14;47.84
21547;BME280;41275;51.912;4.388;2024-02-15T22:22:25;100899.34;;;19.08;47.79
21547;BME280;41275;51.912;4.388;2024-02-15T22:27:46;100894.28;;;19.07;47.99
21547;BME280;41275;51.912;4.388;2024-02-15T22:33:07;100892.16;;;19.04;48.03
21547;BME280;41275;51.912;4.388;2024-02-15T22:38:30;100899.91;;;19.05;48.16
21547;BME280;41275;51.912;4.388;2024-02-15T22:43:51;100900.75;;;19.01;48.14
21547;BME280;41275;51.912;4.388;2024-02-15T22:49:12;100891.97;;;18.95;48.03
21547;BME280;41275;51.912;4.388;2024-02-15T22:54:35;100891.72;;;18.92;48.11
21547;BME280;41275;51.912;4.388;2024-02-15T23:00:00;100889.53;;;18.94;48.11
21547;BME280;41275;51.912;4.388;2024-02-15T23:05:21;100883.63;;;18.97;48.13
21547;BME280;41275;51.912;4.388;2024-02-15T23:10:45;100887.09;;;18.97;48.03
21547;BME280;41275;51.912;4.388;2024-02-15T23:16:07;100889.03;;;18.92;47.96
21547;BME280;41275;51.912;4.388;2024-02-15T23:21:29;100874.38;;;18.79;48.18
21547;BME280;41275;51.912;4.388;2024-02-15T23:26:51;100881.94;;;18.72;48.27
21547;BME280;41275;51.912;4.388;2024-02-15T23:32:12;100876.84;;;18.65;48.20
21547;BME280;41275;51.912;4.388;2024-02-15T23:37:34;100893.22;;;18.63;48.31
21547;BME280;41275;51.912;4.388;2024-02-15T23:43:14;100879.84;;;18.58;48.35
21547;BME280;41275;51.912;4.388;2024-02-15T23:48:36;100891.16;;;18.50;48.40
21547;BME280;41275;51.912;4.388;2024-02-15T23:53:57;100876.19;;;18.44;48.58
21547;BME280;41275;51.912;4.388;2024-02-15T23:59:19;100879.13;;;18.48;48.62
